createdAt,value
2022-09-07T00:00:41.778Z,100720.56
2022-09-07T00:03:09.545Z,100724.09
2022-09-07T00:05:42.645Z,100744.09
2022-09-07T00:08:10.625Z,100730.63
2022-09-07T00:10:38.430Z,100734.97
2022-09-07T00:13:06.967Z,100743.53
2022-09-07T00:15:35.153Z,100745.97
2022-09-07T00:18:04.134Z,100742.72
2022-09-07T00:20:31.720Z,100748.75
2022-09-07T00:22:59.273Z,100742.19
2022-09-07T00:25:26.969Z,100747.41
2022-09-07T00:27:54.606Z,100752.09
2022-09-07T00:30:22.216Z,100747.41
2022-09-07T00:32:49.780Z,100752.38
2022-09-07T00:35:19.231Z,100742.19
2022-09-07T00:37:46.800Z,100737.44
2022-09-07T00:40:14.448Z,100730.00
2022-09-07T00:42:42.061Z,100737.97
2022-09-07T00:45:15.951Z,100726.03
2022-09-07T00:47:52.955Z,100726.84
2022-09-07T00:50:27.380Z,100724.69
2022-09-07T00:53:01.114Z,100731.84
2022-09-07T00:55:30.420Z,100729.09
2022-09-07T00:57:59.637Z,100723.84
2022-09-07T01:00:28.130Z,100718.88
2022-09-07T01:02:58.430Z,100723.28
2022-09-07T01:05:32.245Z,100713.38
2022-09-07T01:08:00.038Z,100712.25
2022-09-07T01:10:31.550Z,100705.53
2022-09-07T01:12:59.273Z,100702.22
2022-09-07T01:15:40.523Z,100699.78
2022-09-07T01:18:15.871Z,100704.16
2022-09-07T01:21:11.410Z,100692.34
2022-09-07T01:24:09.540Z,100700.81
2022-09-07T01:27:22.512Z,100684.47
2022-09-07T01:29:56.512Z,100694.09
2022-09-07T01:32:36.425Z,100697.00
2022-09-07T01:35:09.684Z,100692.09
2022-09-07T01:37:48.985Z,100692.03
2022-09-07T01:40:20.357Z,100691.28
2022-09-07T01:42:55.214Z,100694.78
2022-09-07T01:45:26.820Z,100698.31
2022-09-07T01:47:57.768Z,100694.22
2022-09-07T01:50:32.971Z,100690.97
2022-09-07T01:53:07.165Z,100691.97
2022-09-07T01:55:38.143Z,100683.47
2022-09-07T01:58:11.226Z,100678.78
2022-09-07T02:00:42.615Z,100677.16
2022-09-07T02:03:15.722Z,100665.59
2022-09-07T02:05:50.444Z,100670.59
2022-09-07T02:08:21.719Z,100679.59
2022-09-07T02:10:54.224Z,100672.69
2022-09-07T02:13:27.171Z,100674.88
2022-09-07T02:16:00.727Z,100665.25
2022-09-07T02:18:36.057Z,100674.22
2022-09-07T02:21:05.781Z,100671.75
2022-09-07T02:23:46.345Z,100668.94
2022-09-07T02:26:18.731Z,100671.94
2022-09-07T02:28:48.452Z,100674.34
2022-09-07T02:31:16.346Z,100672.38
2022-09-07T02:33:44.357Z,100669.66
2022-09-07T02:36:13.850Z,100665.41
2022-09-07T02:38:43.712Z,100666.31
2022-09-07T02:41:30.603Z,100663.31
2022-09-07T02:44:01.736Z,100660.53
2022-09-07T02:46:42.622Z,100658.59
2022-09-07T02:49:21.753Z,100652.50
2022-09-07T02:51:56.437Z,100649.31
2022-09-07T02:54:40.406Z,100654.00
2022-09-07T02:57:17.917Z,100648.03
2022-09-07T02:59:56.565Z,100641.63
2022-09-07T03:02:32.224Z,100634.53
2022-09-07T03:05:06.051Z,100629.91
2022-09-07T03:07:39.973Z,100624.16
2022-09-07T03:10:14.238Z,100625.56
2022-09-07T03:12:45.593Z,100642.56
2022-09-07T03:15:16.377Z,100695.28
2022-09-07T03:17:45.572Z,100780.59
2022-09-07T03:20:13.892Z,100738.84
2022-09-07T03:22:41.542Z,100690.75
2022-09-07T03:25:10.004Z,100705.22
2022-09-07T03:27:37.766Z,100713.88
2022-09-07T03:30:07.038Z,100715.03
2022-09-07T03:32:37.748Z,100717.88
2022-09-07T03:35:07.356Z,100703.72
2022-09-07T03:37:36.946Z,100693.88
2022-09-07T03:40:05.852Z,100690.06
2022-09-07T03:42:33.529Z,100689.53
2022-09-07T03:45:01.113Z,100688.22
2022-09-07T03:47:28.713Z,100693.44
2022-09-07T03:49:57.614Z,100683.31
2022-09-07T03:52:25.203Z,100681.13
2022-09-07T03:54:52.855Z,100687.47
2022-09-07T03:57:20.897Z,100696.84
2022-09-07T03:59:49.817Z,100692.50
2022-09-07T04:02:17.565Z,100694.72
2022-09-07T04:04:46.920Z,100700.78
2022-09-07T04:07:16.320Z,100706.28
2022-09-07T04:09:44.040Z,100727.66
2022-09-07T04:12:11.814Z,100730.91
2022-09-07T04:14:39.431Z,100712.78
2022-09-07T04:17:07.358Z,100704.53
2022-09-07T04:19:34.998Z,100711.13
2022-09-07T04:22:02.745Z,100704.00
2022-09-07T04:24:31.825Z,100707.03
2022-09-07T04:26:59.394Z,100708.19
2022-09-07T04:29:27.022Z,100707.44
2022-09-07T04:31:54.757Z,100701.16
2022-09-07T04:34:22.701Z,100703.97
2022-09-07T04:36:52.708Z,100705.38
2022-09-07T04:39:20.290Z,100705.94
2022-09-07T04:41:49.218Z,100703.69
2022-09-07T04:44:17.341Z,100699.00
2022-09-07T04:46:45.150Z,100695.09
2022-09-07T04:49:13.645Z,100705.25
2022-09-07T04:51:44.185Z,100716.53
2022-09-07T04:54:12.647Z,100717.88
2022-09-07T04:56:40.246Z,100719.56
2022-09-07T04:59:09.175Z,100716.22
2022-09-07T05:01:36.802Z,100710.72
2022-09-07T05:04:04.883Z,100708.84
2022-09-07T05:06:32.880Z,100720.38
2022-09-07T05:09:01.202Z,100731.94
2022-09-07T05:11:30.189Z,100724.50
2022-09-07T05:13:58.284Z,100727.25
2022-09-07T05:16:28.321Z,100735.19
2022-09-07T05:18:57.721Z,100731.59
2022-09-07T05:21:28.082Z,100730.47
2022-09-07T05:23:58.033Z,100730.66
2022-09-07T05:26:28.057Z,100726.50
2022-09-07T05:31:45.115Z,100721.09
2022-09-07T05:36:56.603Z,100700.28
2022-09-07T05:39:24.686Z,100692.69
2022-09-07T05:41:52.340Z,100688.00
2022-09-07T05:47:09.358Z,100665.28
2022-09-07T05:49:37.491Z,100660.25
2022-09-07T05:52:05.131Z,100659.09
2022-09-07T05:54:32.743Z,100655.28
2022-09-07T05:57:00.370Z,100644.03
2022-09-07T05:59:28.009Z,100636.59
2022-09-07T06:01:55.779Z,100638.50
2022-09-07T06:04:24.813Z,100616.72
2022-09-07T06:07:18.059Z,100622.44
2022-09-07T06:12:28.162Z,100606.03
2022-09-07T06:14:55.795Z,100595.56
2022-09-07T06:17:23.418Z,100591.72
2022-09-07T06:19:54.802Z,100583.28
2022-09-07T06:22:22.463Z,100590.50
2022-09-07T06:24:50.114Z,100588.56
2022-09-07T06:27:17.693Z,100587.28
2022-09-07T06:29:45.325Z,100592.25
2022-09-07T06:35:01.833Z,100594.78
2022-09-07T06:37:29.506Z,100600.09
2022-09-07T06:39:58.388Z,100600.47
2022-09-07T06:42:26.012Z,100590.72
2022-09-07T06:44:53.735Z,100589.44
2022-09-07T06:47:21.351Z,100585.94
2022-09-07T06:49:48.968Z,100584.34
2022-09-07T06:52:20.453Z,100594.25
2022-09-07T06:55:03.408Z,100592.09
2022-09-07T06:57:31.121Z,100608.91
2022-09-07T06:59:59.116Z,100616.13
2022-09-07T07:02:26.748Z,100622.81
2022-09-07T07:04:54.408Z,100628.69
2022-09-07T07:07:23.421Z,100638.00
2022-09-07T07:09:51.177Z,100644.13
2022-09-07T07:14:45.419Z,100657.75
2022-09-07T07:17:13.237Z,100662.50
2022-09-07T07:19:40.898Z,100668.59
2022-09-07T07:22:23.930Z,100680.25
2022-09-07T07:24:57.419Z,100682.56
2022-09-07T07:27:25.026Z,100675.19
2022-09-07T07:29:53.782Z,100689.75
2022-09-07T07:32:21.954Z,100688.09
2022-09-07T07:34:49.510Z,100698.06
2022-09-07T07:37:17.202Z,100696.72
2022-09-07T07:42:35.427Z,100701.44
2022-09-07T07:47:51.833Z,100694.44
2022-09-07T07:50:34.946Z,100703.28
2022-09-07T07:55:50.717Z,100707.06
2022-09-07T07:58:20.411Z,100707.88
2022-09-07T08:00:54.646Z,100716.44
2022-09-07T08:03:24.168Z,100704.38
2022-09-07T08:05:52.128Z,100701.19
2022-09-07T08:08:19.815Z,100698.00
2022-09-07T08:10:47.834Z,100697.81
2022-09-07T08:13:16.268Z,100703.63
2022-09-07T08:15:46.015Z,100707.81
2022-09-07T08:18:14.278Z,100705.63
2022-09-07T08:20:42.201Z,100708.78
2022-09-07T08:23:10.601Z,100720.63
2022-09-07T08:25:38.464Z,100709.94
2022-09-07T08:28:06.436Z,100708.00
2022-09-07T08:30:34.124Z,100714.38
2022-09-07T08:33:03.021Z,100712.72
2022-09-07T08:35:30.666Z,100712.22
2022-09-07T08:37:58.260Z,100702.09
2022-09-07T08:40:25.880Z,100697.44
2022-09-07T08:43:04.282Z,100702.88
2022-09-07T08:45:37.871Z,100701.03
2022-09-07T08:48:06.858Z,100689.47
2022-09-07T08:50:41.850Z,100691.09
2022-09-07T08:53:13.856Z,100700.22
2022-09-07T08:55:47.933Z,100700.44
2022-09-07T08:58:45.254Z,100694.72
2022-09-07T09:04:19.331Z,100695.56
2022-09-07T09:07:03.117Z,100695.03
2022-09-07T09:09:45.297Z,100698.38
2022-09-07T09:12:25.417Z,100690.75
2022-09-07T09:15:04.155Z,100687.16
2022-09-07T09:17:38.949Z,100692.97
2022-09-07T09:20:20.501Z,100685.81
2022-09-07T09:22:48.857Z,100684.19
2022-09-07T09:25:20.488Z,100673.97
2022-09-07T09:27:49.084Z,100675.09
2022-09-07T09:30:19.263Z,100682.25
2022-09-07T09:32:48.738Z,100673.16
2022-09-07T09:35:33.537Z,100672.91
2022-09-07T09:38:03.425Z,100675.66
2022-09-07T09:40:32.939Z,100676.75
2022-09-07T09:43:03.533Z,100674.81
2022-09-07T09:48:33.869Z,100670.69
2022-09-07T09:53:57.649Z,100673.16
2022-09-07T09:56:38.956Z,100668.47
2022-09-07T10:05:26.768Z,100661.59
2022-09-07T10:07:56.236Z,100667.69
2022-09-07T10:10:24.057Z,100666.31
2022-09-07T10:12:57.913Z,100661.06
2022-09-07T10:15:30.129Z,100663.53
2022-09-07T10:17:59.081Z,100669.59
2022-09-07T10:20:36.087Z,100660.50
2022-09-07T10:23:07.080Z,100664.03
2022-09-07T10:25:37.175Z,100662.09
2022-09-07T10:28:15.070Z,100667.06
2022-09-07T10:30:56.673Z,100654.06
2022-09-07T10:33:31.706Z,100656.81
2022-09-07T10:36:06.549Z,100654.88
2022-09-07T10:38:41.979Z,100653.75
2022-09-07T10:41:12.091Z,100658.16
2022-09-07T10:43:44.227Z,100651.78
2022-09-07T10:49:18.001Z,100645.13
2022-09-07T10:51:58.929Z,100643.44
2022-09-07T10:54:37.568Z,100640.97
2022-09-07T10:57:20.611Z,100639.06
2022-09-07T11:00:13.232Z,100633.78
2022-09-07T11:06:07.104Z,100629.84
2022-09-07T11:14:32.423Z,100623.47
2022-09-07T11:17:04.378Z,100632.84
2022-09-07T11:19:37.488Z,100631.16
2022-09-07T11:22:17.010Z,100638.94
2022-09-07T11:25:29.176Z,100641.72
2022-09-07T11:27:43.503Z,100638.94
2022-09-07T11:30:20.423Z,100628.66
2022-09-07T11:32:55.364Z,100631.41
2022-09-07T11:35:32.799Z,100630.19
2022-09-07T11:38:10.194Z,100628.41
2022-09-07T11:40:44.470Z,100626.34
2022-09-07T11:43:22.375Z,100623.13
2022-09-07T11:45:54.962Z,100625.81
2022-09-07T11:48:30.420Z,100619.34
2022-09-07T11:51:02.025Z,100616.97
2022-09-07T11:53:33.797Z,100609.22
2022-09-07T11:56:05.528Z,100599.22
2022-09-07T11:58:55.217Z,100604.13
2022-09-07T12:01:34.795Z,100594.34
2022-09-07T12:04:27.466Z,100604.25
2022-09-07T12:07:18.418Z,100589.81
2022-09-07T12:10:10.860Z,100588.94
2022-09-07T12:13:02.327Z,100584.31
2022-09-07T12:15:43.281Z,100589.03
2022-09-07T12:18:25.644Z,100579.75
2022-09-07T12:20:53.429Z,100581.56
2022-09-07T12:23:30.232Z,100576.09
2022-09-07T12:26:35.408Z,100580.03
2022-09-07T12:29:20.451Z,100577.13
2022-09-07T12:32:00.064Z,100580.34
2022-09-07T12:35:00.406Z,100580.03
2022-09-07T12:37:38.150Z,100567.06
2022-09-07T12:40:44.642Z,100562.00
2022-09-07T12:43:52.750Z,100567.25
2022-09-07T12:46:42.029Z,100563.13
2022-09-07T12:49:32.450Z,100558.94
2022-09-07T12:52:15.398Z,100564.00
2022-09-07T12:55:10.073Z,100570.25
2022-09-07T12:57:46.299Z,100563.66
2022-09-07T13:00:19.740Z,100565.50
2022-09-07T13:03:49.363Z,100551.34
2022-09-07T13:06:06.328Z,100555.13
2022-09-07T13:09:02.307Z,100548.47
2022-09-07T13:11:37.523Z,100555.16
2022-09-07T13:14:09.487Z,100557.31
2022-09-07T13:20:01.139Z,100543.94
2022-09-07T13:22:56.159Z,100542.06
2022-09-07T13:25:46.639Z,100544.03
2022-09-07T13:28:26.033Z,100545.25
2022-09-07T13:31:05.902Z,100540.59
2022-09-07T13:33:49.263Z,100540.25
2022-09-07T13:36:25.526Z,100542.38
2022-09-07T13:38:56.000Z,100534.44
2022-09-07T13:41:27.136Z,100540.88
2022-09-07T13:44:00.179Z,100536.09
2022-09-07T13:46:38.375Z,100535.63
2022-09-07T13:49:17.706Z,100539.84
2022-09-07T13:51:53.050Z,100533.97
2022-09-07T13:54:29.826Z,100535.47
2022-09-07T13:57:05.439Z,100532.47
2022-09-07T13:59:35.763Z,100534.00
2022-09-07T14:02:03.956Z,100537.81
2022-09-07T14:04:36.179Z,100535.44
2022-09-07T14:07:06.643Z,100536.19
2022-09-07T14:09:35.926Z,100530.59
2022-09-07T14:12:05.472Z,100532.75
2022-09-07T14:14:33.397Z,100531.94
2022-09-07T14:17:05.322Z,100534.16
2022-09-07T14:19:39.128Z,100524.94
2022-09-07T14:22:11.966Z,100518.84
2022-09-07T14:24:42.803Z,100526.66
2022-09-07T14:27:21.799Z,100513.91
2022-09-07T14:29:49.609Z,100512.28
2022-09-07T14:32:21.260Z,100503.75
2022-09-07T14:34:50.142Z,100514.00
2022-09-07T14:37:21.215Z,100514.78
2022-09-07T14:39:52.678Z,100509.28
2022-09-07T14:42:23.571Z,100520.38
2022-09-07T14:44:54.212Z,100520.56
2022-09-07T14:47:29.288Z,100518.22
2022-09-07T14:50:05.570Z,100519.56
2022-09-07T14:52:42.404Z,100513.81
2022-09-07T14:55:29.135Z,100512.50
2022-09-07T14:58:22.944Z,100500.22
2022-09-07T15:03:56.171Z,100502.50
2022-09-07T15:09:30.731Z,100512.78
2022-09-07T15:12:19.043Z,100505.69
2022-09-07T15:14:48.214Z,100502.09
2022-09-07T15:20:36.935Z,100512.28
2022-09-07T15:23:06.198Z,100502.63
2022-09-07T15:25:35.908Z,100500.47
2022-09-07T15:28:05.601Z,100512.16
2022-09-07T15:30:34.030Z,100509.06
2022-09-07T15:33:01.920Z,100502.63
2022-09-07T15:35:29.525Z,100509.41
2022-09-07T15:38:05.474Z,100503.66
2022-09-07T15:40:51.503Z,100501.91
2022-09-07T15:43:30.558Z,100505.50
2022-09-07T15:45:58.380Z,100492.03
2022-09-07T15:48:26.261Z,100492.34
2022-09-07T15:51:02.541Z,100498.81
2022-09-07T15:56:20.125Z,100495.75
2022-09-07T15:58:53.718Z,100493.06
2022-09-07T16:04:14.627Z,100479.03
2022-09-07T16:06:42.459Z,100488.09
2022-09-07T16:09:10.080Z,100487.16
2022-09-07T16:11:37.714Z,100488.38
2022-09-07T16:14:06.772Z,100483.97
2022-09-07T16:19:22.187Z,100482.19
2022-09-07T16:21:49.827Z,100482.56
2022-09-07T16:24:17.731Z,100483.69
2022-09-07T16:26:45.370Z,100492.00
2022-09-07T16:29:15.311Z,100477.66
2022-09-07T16:34:30.634Z,100488.03
2022-09-07T16:36:58.231Z,100486.97
2022-09-07T16:39:25.890Z,100480.91
2022-09-07T16:41:53.695Z,100480.69
2022-09-07T16:44:22.898Z,100483.75
2022-09-07T16:46:50.780Z,100486.53
2022-09-07T16:49:19.683Z,100486.31
2022-09-07T16:51:50.077Z,100490.22
2022-09-07T16:54:18.201Z,100490.28
2022-09-07T16:56:45.795Z,100494.78
2022-09-07T16:59:16.900Z,100485.41
2022-09-07T17:01:45.975Z,100492.66
2022-09-07T17:04:13.723Z,100497.69
2022-09-07T17:06:41.491Z,100496.88
2022-09-07T17:09:09.280Z,100496.34
2022-09-07T17:11:37.721Z,100502.28
2022-09-07T17:14:06.643Z,100507.88
2022-09-07T17:16:40.151Z,100501.81
2022-09-07T17:22:00.625Z,100505.50
2022-09-07T17:24:28.454Z,100500.84
2022-09-07T17:26:56.703Z,100494.50
2022-09-07T17:29:24.634Z,100501.16
2022-09-07T17:34:46.693Z,100515.13
2022-09-07T17:37:14.309Z,100503.84
2022-09-07T17:39:42.161Z,100505.25
2022-09-07T17:42:09.930Z,100512.72
2022-09-07T17:44:38.469Z,100515.28
2022-09-07T17:47:06.880Z,100516.69
2022-09-07T17:49:34.721Z,100520.59
2022-09-07T17:52:04.208Z,100521.09
2022-09-07T17:54:32.747Z,100527.97
2022-09-07T17:57:00.688Z,100518.56
2022-09-07T18:02:16.179Z,100528.75
2022-09-07T18:04:43.909Z,100539.84
2022-09-07T18:07:13.143Z,100531.59
2022-09-07T18:09:41.847Z,100539.66
2022-09-07T18:12:09.726Z,100544.41
2022-09-07T18:14:37.538Z,100547.81
2022-09-07T18:17:06.164Z,100549.53
2022-09-07T18:19:33.869Z,100555.72
2022-09-07T18:22:03.906Z,100550.28
2022-09-07T18:24:36.758Z,100558.63
2022-09-07T18:27:07.917Z,100558.72
2022-09-07T18:29:35.689Z,100557.63
2022-09-07T18:32:08.181Z,100563.22
2022-09-07T18:34:37.321Z,100568.53
2022-09-07T18:37:05.152Z,100570.44
2022-09-07T18:39:35.470Z,100580.97
2022-09-07T18:42:03.342Z,100578.78
2022-09-07T18:47:27.549Z,100577.75
2022-09-07T18:49:56.207Z,100579.22
2022-09-07T18:55:12.894Z,100572.84
2022-09-07T18:57:40.458Z,100572.03
2022-09-07T19:00:09.991Z,100575.38
2022-09-07T19:02:38.078Z,100576.78
2022-09-07T19:07:54.198Z,100580.13
2022-09-07T19:10:23.194Z,100584.06
2022-09-07T19:12:50.883Z,100581.56
2022-09-07T19:15:20.325Z,100589.06
2022-09-07T19:17:48.014Z,100594.84
2022-09-07T19:20:15.729Z,100602.28
2022-09-07T19:22:43.612Z,100595.97
2022-09-07T19:25:11.358Z,100589.94
2022-09-07T19:27:40.287Z,100586.06
2022-09-07T19:30:09.095Z,100588.81
2022-09-07T19:32:37.010Z,100588.59
2022-09-07T19:35:05.113Z,100593.06
2022-09-07T19:37:32.825Z,100589.16
2022-09-07T19:40:01.215Z,100590.81
2022-09-07T19:42:29.493Z,100585.34
2022-09-07T19:44:58.697Z,100588.69
2022-09-07T19:47:26.671Z,100591.78
2022-09-07T19:49:54.325Z,100588.75
2022-09-07T19:52:21.913Z,100586.00
2022-09-07T19:54:49.486Z,100577.78
2022-09-07T19:57:17.167Z,100586.09
2022-09-07T19:59:45.584Z,100586.41
2022-09-07T20:02:14.514Z,100582.81
2022-09-07T20:04:42.121Z,100577.84
2022-09-07T20:07:09.750Z,100567.38
2022-09-07T20:09:37.375Z,100566.84
2022-09-07T20:12:06.708Z,100574.59
2022-09-07T20:14:34.413Z,100574.59
2022-09-07T20:17:02.317Z,100570.44
2022-09-07T20:19:31.326Z,100573.75
2022-09-07T20:21:58.945Z,100560.75
2022-09-07T20:24:26.618Z,100556.09
2022-09-07T20:26:54.265Z,100559.66
2022-09-07T20:29:29.404Z,100560.75
2022-09-07T20:31:58.343Z,100555.81
2022-09-07T20:34:26.490Z,100560.84
2022-09-07T20:36:56.855Z,100548.97
2022-09-07T20:39:24.547Z,100552.59
2022-09-07T20:41:52.260Z,100548.19
2022-09-07T20:44:20.053Z,100551.25
2022-09-07T20:46:47.770Z,100545.44
2022-09-07T20:49:15.457Z,100549.88
2022-09-07T20:51:43.172Z,100552.63
2022-09-07T20:54:12.240Z,100546.84
2022-09-07T20:56:39.831Z,100553.19
2022-09-07T20:59:07.749Z,100553.50
2022-09-07T21:01:36.527Z,100563.69
2022-09-07T21:04:06.013Z,100568.69
2022-09-07T21:06:33.801Z,100558.19
2022-09-07T21:09:03.786Z,100562.03
2022-09-07T21:11:34.582Z,100559.25
2022-09-07T21:14:05.988Z,100551.53
2022-09-07T21:16:34.314Z,100565.34
2022-09-07T21:19:03.405Z,100554.59
2022-09-07T21:21:38.990Z,100559.03
2022-09-07T21:24:08.368Z,100556.28
2022-09-07T21:26:37.283Z,100556.00
2022-09-07T21:29:05.899Z,100566.44
2022-09-07T21:31:34.437Z,100562.84
2022-09-07T21:34:03.324Z,100567.28
2022-09-07T21:36:30.984Z,100570.88
2022-09-07T21:38:58.661Z,100575.28
2022-09-07T21:41:26.706Z,100577.53
2022-09-07T21:44:00.243Z,100572.28
2022-09-07T21:46:29.392Z,100572.88
2022-09-07T21:48:58.525Z,100575.63
2022-09-07T21:51:27.281Z,100579.47
2022-09-07T21:53:56.310Z,100567.06
2022-09-07T21:56:24.696Z,100565.97
2022-09-07T21:58:54.940Z,100567.06
2022-09-07T22:01:25.396Z,100566.78
2022-09-07T22:03:55.870Z,100565.69
2022-09-07T22:06:24.057Z,100553.56
2022-09-07T22:08:51.841Z,100551.09
2022-09-07T22:11:21.563Z,100549.44
2022-09-07T22:13:49.589Z,100550.00
2022-09-07T22:16:17.236Z,100542.56
2022-09-07T22:18:46.989Z,100531.00
2022-09-07T22:21:16.745Z,100537.03
2022-09-07T22:23:46.828Z,100532.63
2022-09-07T22:26:15.685Z,100527.38
2022-09-07T22:28:43.323Z,100524.63
2022-09-07T22:31:13.645Z,100526.81
2022-09-07T22:33:41.777Z,100527.38
2022-09-07T22:36:14.070Z,100520.19
2022-09-07T22:38:41.732Z,100513.59
2022-09-07T22:41:11.402Z,100508.09
2022-09-07T22:43:39.393Z,100500.13
2022-09-07T22:46:07.384Z,100502.59
2022-09-07T22:48:35.044Z,100493.78
2022-09-07T22:51:03.984Z,100497.91
2022-09-07T22:53:35.419Z,100491.00
2022-09-07T22:56:07.237Z,100483.88
2022-09-07T22:58:34.949Z,100484.97
2022-09-07T23:01:02.642Z,100477.25
2022-09-07T23:03:30.907Z,100469.53
2022-09-07T23:05:58.711Z,100471.19
2022-09-07T23:08:26.276Z,100465.13
2022-09-07T23:10:55.185Z,100453.31
2022-09-07T23:13:23.045Z,100451.66
2022-09-07T23:15:50.626Z,100449.44
2022-09-07T23:18:22.248Z,100451.91
2022-09-07T23:20:50.164Z,100437.34
2022-09-07T23:23:17.951Z,100446.41
2022-09-07T23:25:45.622Z,100439.25
2022-09-07T23:28:14.580Z,100446.97
2022-09-07T23:30:47.499Z,100443.13
2022-09-07T23:33:15.158Z,100429.91
2022-09-07T23:35:43.288Z,100433.50
2022-09-07T23:38:11.039Z,100431.28
2022-09-07T23:40:39.057Z,100433.22
2022-09-07T23:43:06.620Z,100433.75
2022-09-07T23:45:35.572Z,100428.25
2022-09-07T23:48:03.510Z,100427.97
2022-09-07T23:50:31.069Z,100427.16
2022-09-07T23:52:58.670Z,100427.69
2022-09-07T23:55:26.343Z,100435.38
2022-09-07T23:57:53.923Z,100423.81
